Dukinfield, United Kingdom
Current Conditions -  °F | °C
As of 12:50 PM on Thursday 23 Oct 2014 (Local Time) from EGCC Reporting Station
Broken Clouds Broken Clouds  
Wind Chill: 14°   Ceiling: 2700
Heat Index: 14°   Visibility: 6mi
Dew Point: 12°   Wind: 12mph
Humidity: 88%   Direction: 190°S
Pressure: 29.97"   Gusts: NA
Location:  53.47°N, 2.09°W
Report Text: EGCC 231150Z 19010KT 150V210 9999 BKN027 BKN033 14/12 Q1015 NOSIG
Loading
Personal Weather Stations






























Interactive Weather Map
Tropical Storm Tracking
New forecast layout! Learn more

10-Day Weather Forecast

Advertisements
Track Severe Weather on mobile